sensor_id;sensor_type;location;lat;lon;timestamp;pressure;altitude;pressure_sealevel;temperature;humidity
21817;BME280;13247;47.504;7.382;2023-02-10T00:00:26;99237.28;;;-1.66;100.00
21817;BME280;13247;47.504;7.382;2023-02-10T00:03:10;99243.25;;;-1.67;100.00
21817;BME280;13247;47.504;7.382;2023-02-10T00:05:55;99240.53;;;-1.70;100.00
21817;BME280;13247;47.504;7.382;2023-02-10T00:08:39;99241.97;;;-1.58;100.00
21817;BME280;13247;47.504;7.382;2023-02-10T00:11:24;99242.94;;;-1.55;100.00
21817;BME280;13247;47.504;7.382;2023-02-10T00:14:29;99235.38;;;-1.52;100.00
21817;BME280;13247;47.504;7.382;2023-02-10T00:17:14;99248.69;;;-1.61;100.00
21817;BME280;13247;47.504;7.382;2023-02-10T00:20:01;99253.53;;;-1.67;100.00
21817;BME280;13247;47.504;7.382;2023-02-10T00:22:46;99253.75;;;-1.80;100.00
21817;BME280;13247;47.504;7.382;2023-02-10T00:25:31;99256.47;;;-1.77;100.00
21817;BME280;13247;47.504;7.382;2023-02-10T00:28:15;99250.63;;;-1.92;100.00
21817;BME280;13247;47.504;7.382;2023-02-10T00:31:13;99254.56;;;-1.81;100.00
21817;BME280;13247;47.504;7.382;2023-02-10T00:33:58;99245.09;;;-1.82;100.00
21817;BME280;13247;47.504;7.382;2023-02-10T00:36:43;99248.63;;;-1.80;100.00
21817;BME280;13247;47.504;7.382;2023-02-10T00:39:28;99256.03;;;-1.86;100.00
21817;BME280;13247;47.504;7.382;2023-02-10T00:42:12;99257.28;;;-2.13;100.00
21817;BME280;13247;47.504;7.382;2023-02-10T00:44:57;99267.88;;;-2.07;100.00
21817;BME280;13247;47.504;7.382;2023-02-10T00:47:41;99256.03;;;-2.04;100.00
21817;BME280;13247;47.504;7.382;2023-02-10T00:50:26;99248.25;;;-1.88;100.00
21817;BME280;13247;47.504;7.382;2023-02-10T00:53:11;99253.03;;;-1.95;100.00
21817;BME280;13247;47.504;7.382;2023-02-10T00:55:55;99251.41;;;-1.93;100.00
21817;BME280;13247;47.504;7.382;2023-02-10T00:58:40;99252.19;;;-1.94;100.00
21817;BME280;13247;47.504;7.382;2023-02-10T01:01:24;99250.13;;;-1.84;100.00
21817;BME280;13247;47.504;7.382;2023-02-10T01:04:09;99253.97;;;-1.93;100.00
21817;BME280;13247;47.504;7.382;2023-02-10T01:06:54;99255.22;;;-1.85;100.00
21817;BME280;13247;47.504;7.382;2023-02-10T01:09:38;99260.66;;;-1.79;100.00
21817;BME280;13247;47.504;7.382;2023-02-10T01:12:24;99257.50;;;-1.74;100.00
21817;BME280;13247;47.504;7.382;2023-02-10T01:15:08;99261.31;;;-1.66;100.00
21817;BME280;13247;47.504;7.382;2023-02-10T01:17:53;99259.97;;;-1.58;100.00
21817;BME280;13247;47.504;7.382;2023-02-10T01:20:39;99256.13;;;-1.67;100.00
21817;BME280;13247;47.504;7.382;2023-02-10T01:23:24;99251.31;;;-1.77;100.00
21817;BME280;13247;47.504;7.382;2023-02-10T01:26:09;99247.72;;;-1.81;100.00
21817;BME280;13247;47.504;7.382;2023-02-10T01:28:54;99244.59;;;-1.56;100.00
21817;BME280;13247;47.504;7.382;2023-02-10T01:31:39;99244.94;;;-1.85;100.00
21817;BME280;13247;47.504;7.382;2023-02-10T01:34:23;99252.88;;;-1.98;100.00
21817;BME280;13247;47.504;7.382;2023-02-10T01:37:08;99245.38;;;-1.94;100.00
21817;BME280;13247;47.504;7.382;2023-02-10T01:39:52;99245.09;;;-1.82;100.00
21817;BME280;13247;47.504;7.382;2023-02-10T01:42:37;99242.97;;;-1.54;100.00
21817;BME280;13247;47.504;7.382;2023-02-10T01:45:37;99242.31;;;-1.69;100.00
21817;BME280;13247;47.504;7.382;2023-02-10T01:48:23;99246.44;;;-1.90;100.00
21817;BME280;13247;47.504;7.382;2023-02-10T01:51:09;99252.50;;;-2.06;100.00
21817;BME280;13247;47.504;7.382;2023-02-10T01:53:55;99254.91;;;-2.09;100.00
21817;BME280;13247;47.504;7.382;2023-02-10T01:56:40;99255.16;;;-2.04;100.00
21817;BME280;13247;47.504;7.382;2023-02-10T01:59:27;99252.75;;;-2.01;100.00
21817;BME280;13247;47.504;7.382;2023-02-10T02:02:14;99254.06;;;-2.09;100.00
21817;BME280;13247;47.504;7.382;2023-02-10T02:05:05;99250.31;;;-2.16;100.00
21817;BME280;13247;47.504;7.382;2023-02-10T02:07:50;99249.22;;;-2.03;100.00
21817;BME280;13247;47.504;7.382;2023-02-10T02:23:15;99259.47;;;-2.21;100.00
21817;BME280;13247;47.504;7.382;2023-02-10T02:32:38;99256.09;;;-2.20;100.00
21817;BME280;13247;47.504;7.382;2023-02-10T02:35:31;99254.50;;;-2.18;100.00
21817;BME280;13247;47.504;7.382;2023-02-10T02:38:17;99258.44;;;-2.07;100.00
21817;BME280;13247;47.504;7.382;2023-02-10T02:41:01;99268.16;;;-2.01;100.00
21817;BME280;13247;47.504;7.382;2023-02-10T02:43:46;99256.28;;;-1.82;100.00
21817;BME280;13247;47.504;7.382;2023-02-10T02:49:26;99255.88;;;-2.24;100.00
21817;BME280;13247;47.504;7.382;2023-02-10T02:52:44;99253.72;;;-2.15;100.00
21817;BME280;13247;47.504;7.382;2023-02-10T02:59:20;99265.13;;;-2.10;100.00
21817;BME280;13247;47.504;7.382;2023-02-10T03:02:11;99256.63;;;-2.09;100.00
21817;BME280;13247;47.504;7.382;2023-02-10T03:04:56;99251.75;;;-1.86;100.00
21817;BME280;13247;47.504;7.382;2023-02-10T03:07:41;99246.41;;;-1.73;100.00
21817;BME280;13247;47.504;7.382;2023-02-10T03:10:26;99249.19;;;-1.68;100.00
21817;BME280;13247;47.504;7.382;2023-02-10T03:13:11;99242.81;;;-1.76;100.00
21817;BME280;13247;47.504;7.382;2023-02-10T03:15:58;99240.31;;;-2.10;100.00
21817;BME280;13247;47.504;7.382;2023-02-10T03:18:43;99248.16;;;-2.24;100.00
21817;BME280;13247;47.504;7.382;2023-02-10T03:21:28;99250.28;;;-2.33;100.00
21817;BME280;13247;47.504;7.382;2023-02-10T03:24:13;99244.94;;;-2.20;100.00
21817;BME280;13247;47.504;7.382;2023-02-10T03:26:57;99261.75;;;-2.27;100.00
21817;BME280;13247;47.504;7.382;2023-02-10T03:29:42;99259.84;;;-2.47;100.00
21817;BME280;13247;47.504;7.382;2023-02-10T03:32:27;99259.44;;;-2.39;100.00
21817;BME280;13247;47.504;7.382;2023-02-10T03:35:12;99262.31;;;-2.66;100.00
21817;BME280;13247;47.504;7.382;2023-02-10T03:37:57;99260.84;;;-2.45;100.00
21817;BME280;13247;47.504;7.382;2023-02-10T03:40:42;99260.31;;;-2.38;100.00
21817;BME280;13247;47.504;7.382;2023-02-10T03:43:27;99261.41;;;-2.51;100.00
21817;BME280;13247;47.504;7.382;2023-02-10T03:46:11;99263.19;;;-2.50;100.00
21817;BME280;13247;47.504;7.382;2023-02-10T03:48:55;99266.50;;;-2.68;100.00
21817;BME280;13247;47.504;7.382;2023-02-10T03:51:41;99270.59;;;-2.88;100.00
21817;BME280;13247;47.504;7.382;2023-02-10T03:54:25;99271.66;;;-3.00;100.00
21817;BME280;13247;47.504;7.382;2023-02-10T03:57:11;99275.13;;;-3.00;100.00
21817;BME280;13247;47.504;7.382;2023-02-10T03:59:56;99278.78;;;-2.95;100.00
21817;BME280;13247;47.504;7.382;2023-02-10T04:02:40;99280.63;;;-2.92;100.00
21817;BME280;13247;47.504;7.382;2023-02-10T04:05:25;99278.69;;;-2.80;100.00
21817;BME280;13247;47.504;7.382;2023-02-10T04:08:09;99282.88;;;-2.66;100.00
21817;BME280;13247;47.504;7.382;2023-02-10T04:10:55;99291.69;;;-2.77;100.00
21817;BME280;13247;47.504;7.382;2023-02-10T04:13:39;99293.84;;;-2.69;100.00
21817;BME280;13247;47.504;7.382;2023-02-10T04:16:25;99294.94;;;-2.64;100.00
21817;BME280;13247;47.504;7.382;2023-02-10T04:19:12;99300.03;;;-2.65;100.00
21817;BME280;13247;47.504;7.382;2023-02-10T04:21:57;99297.69;;;-2.61;100.00
21817;BME280;13247;47.504;7.382;2023-02-10T04:24:41;99299.00;;;-2.69;100.00
21817;BME280;13247;47.504;7.382;2023-02-10T04:27:26;99307.25;;;-2.90;100.00
21817;BME280;13247;47.504;7.382;2023-02-10T04:30:11;99312.47;;;-3.21;100.00
21817;BME280;13247;47.504;7.382;2023-02-10T04:32:56;99307.41;;;-3.03;100.00
21817;BME280;13247;47.504;7.382;2023-02-10T04:35:40;99302.38;;;-2.86;100.00
21817;BME280;13247;47.504;7.382;2023-02-10T04:38:25;99302.69;;;-2.96;100.00
21817;BME280;13247;47.504;7.382;2023-02-10T04:41:10;99301.06;;;-3.26;100.00
21817;BME280;13247;47.504;7.382;2023-02-10T04:43:54;99299.06;;;-2.99;100.00
21817;BME280;13247;47.504;7.382;2023-02-10T04:46:39;99294.03;;;-2.98;100.00
21817;BME280;13247;47.504;7.382;2023-02-10T04:49:24;99293.16;;;-2.98;100.00
21817;BME280;13247;47.504;7.382;2023-02-10T04:52:09;99301.09;;;-2.94;100.00
21817;BME280;13247;47.504;7.382;2023-02-10T04:54:54;99304.28;;;-2.98;100.00
21817;BME280;13247;47.504;7.382;2023-02-10T04:57:39;99302.06;;;-2.92;100.00
21817;BME280;13247;47.504;7.382;2023-02-10T05:00:23;99304.84;;;-2.87;100.00
21817;BME280;13247;47.504;7.382;2023-02-10T05:03:08;99304.44;;;-2.95;100.00
21817;BME280;13247;47.504;7.382;2023-02-10T05:05:53;99300.34;;;-2.91;100.00
21817;BME280;13247;47.504;7.382;2023-02-10T05:08:38;99303.91;;;-2.89;100.00
21817;BME280;13247;47.504;7.382;2023-02-10T05:11:26;99303.31;;;-2.84;100.00
21817;BME280;13247;47.504;7.382;2023-02-10T05:14:10;99309.19;;;-2.86;100.00
21817;BME280;13247;47.504;7.382;2023-02-10T05:16:55;99309.56;;;-2.95;100.00
21817;BME280;13247;47.504;7.382;2023-02-10T05:19:40;99310.22;;;-3.15;100.00
21817;BME280;13247;47.504;7.382;2023-02-10T05:22:24;99311.78;;;-3.33;100.00
21817;BME280;13247;47.504;7.382;2023-02-10T05:25:14;99309.25;;;-3.48;100.00
21817;BME280;13247;47.504;7.382;2023-02-10T05:27:58;99312.25;;;-3.40;100.00
21817;BME280;13247;47.504;7.382;2023-02-10T05:30:43;99321.41;;;-3.29;100.00
21817;BME280;13247;47.504;7.382;2023-02-10T05:33:28;99308.88;;;-3.08;100.00
21817;BME280;13247;47.504;7.382;2023-02-10T05:36:12;99317.09;;;-3.14;100.00
21817;BME280;13247;47.504;7.382;2023-02-10T05:38:57;99318.16;;;-3.41;100.00
21817;BME280;13247;47.504;7.382;2023-02-10T05:42:01;99324.22;;;-3.55;100.00
21817;BME280;13247;47.504;7.382;2023-02-10T05:44:45;99327.59;;;-3.56;100.00
21817;BME280;13247;47.504;7.382;2023-02-10T05:47:33;99322.66;;;-3.37;100.00
21817;BME280;13247;47.504;7.382;2023-02-10T05:50:18;99322.16;;;-3.46;100.00
21817;BME280;13247;47.504;7.382;2023-02-10T05:53:03;99331.09;;;-3.54;100.00
21817;BME280;13247;47.504;7.382;2023-02-10T05:55:48;99330.34;;;-3.37;100.00
21817;BME280;13247;47.504;7.382;2023-02-10T05:58:32;99328.84;;;-3.34;100.00
21817;BME280;13247;47.504;7.382;2023-02-10T06:01:17;99336.50;;;-3.50;100.00
21817;BME280;13247;47.504;7.382;2023-02-10T06:04:02;99333.91;;;-3.66;100.00
21817;BME280;13247;47.504;7.382;2023-02-10T06:06:47;99318.88;;;-3.44;100.00
21817;BME280;13247;47.504;7.382;2023-02-10T06:09:32;99327.53;;;-3.42;100.00
21817;BME280;13247;47.504;7.382;2023-02-10T06:12:17;99336.13;;;-3.41;100.00
21817;BME280;13247;47.504;7.382;2023-02-10T06:15:01;99344.63;;;-3.57;100.00
21817;BME280;13247;47.504;7.382;2023-02-10T06:17:46;99340.28;;;-3.74;100.00
21817;BME280;13247;47.504;7.382;2023-02-10T06:20:31;99338.47;;;-3.60;100.00
21817;BME280;13247;47.504;7.382;2023-02-10T06:23:15;99343.56;;;-3.46;100.00
21817;BME280;13247;47.504;7.382;2023-02-10T06:26:00;99333.25;;;-3.31;100.00
21817;BME280;13247;47.504;7.382;2023-02-10T06:28:45;99336.88;;;-3.28;100.00
21817;BME280;13247;47.504;7.382;2023-02-10T06:31:29;99342.41;;;-3.20;100.00
21817;BME280;13247;47.504;7.382;2023-02-10T06:34:14;99340.31;;;-3.27;100.00
21817;BME280;13247;47.504;7.382;2023-02-10T06:37:00;99331.84;;;-3.26;100.00
21817;BME280;13247;47.504;7.382;2023-02-10T06:39:44;99337.22;;;-3.22;100.00
21817;BME280;13247;47.504;7.382;2023-02-10T06:42:29;99341.31;;;-3.40;100.00
21817;BME280;13247;47.504;7.382;2023-02-10T06:45:14;99348.91;;;-3.57;100.00
21817;BME280;13247;47.504;7.382;2023-02-10T06:47:59;99353.84;;;-3.60;100.00
21817;BME280;13247;47.504;7.382;2023-02-10T06:50:43;99352.44;;;-3.55;100.00
21817;BME280;13247;47.504;7.382;2023-02-10T06:53:28;99355.25;;;-3.65;100.00
21817;BME280;13247;47.504;7.382;2023-02-10T06:56:13;99351.03;;;-3.65;100.00
21817;BME280;13247;47.504;7.382;2023-02-10T06:58:58;99348.47;;;-3.65;100.00
21817;BME280;13247;47.504;7.382;2023-02-10T07:01:43;99361.47;;;-3.62;100.00
21817;BME280;13247;47.504;7.382;2023-02-10T07:04:32;99363.13;;;-3.62;100.00
21817;BME280;13247;47.504;7.382;2023-02-10T07:07:16;99358.09;;;-3.61;100.00
21817;BME280;13247;47.504;7.382;2023-02-10T07:10:02;99369.91;;;-3.48;100.00
21817;BME280;13247;47.504;7.382;2023-02-10T07:12:46;99370.38;;;-3.55;100.00
21817;BME280;13247;47.504;7.382;2023-02-10T07:15:31;99370.28;;;-3.42;100.00
21817;BME280;13247;47.504;7.382;2023-02-10T07:18:16;99368.31;;;-3.46;100.00
21817;BME280;13247;47.504;7.382;2023-02-10T07:21:00;99374.84;;;-3.37;100.00
21817;BME280;13247;47.504;7.382;2023-02-10T07:23:45;99378.00;;;-3.26;100.00
21817;BME280;13247;47.504;7.382;2023-02-10T07:26:29;99374.28;;;-3.31;100.00
21817;BME280;13247;47.504;7.382;2023-02-10T07:29:14;99369.00;;;-3.34;100.00
21817;BME280;13247;47.504;7.382;2023-02-10T07:31:58;99384.22;;;-3.37;100.00
21817;BME280;13247;47.504;7.382;2023-02-10T07:34:43;99387.84;;;-3.48;100.00
21817;BME280;13247;47.504;7.382;2023-02-10T07:37:28;99395.75;;;-3.60;100.00
21817;BME280;13247;47.504;7.382;2023-02-10T07:40:13;99397.13;;;-3.50;100.00
21817;BME280;13247;47.504;7.382;2023-02-10T07:42:58;99394.75;;;-3.47;100.00
21817;BME280;13247;47.504;7.382;2023-02-10T07:45:42;99394.53;;;-3.36;100.00
21817;BME280;13247;47.504;7.382;2023-02-10T07:48:27;99390.38;;;-3.19;100.00
21817;BME280;13247;47.504;7.382;2023-02-10T07:51:12;99389.25;;;-3.08;100.00
21817;BME280;13247;47.504;7.382;2023-02-10T07:53:56;99392.97;;;-2.87;100.00
21817;BME280;13247;47.504;7.382;2023-02-10T07:56:41;99400.53;;;-2.90;100.00
21817;BME280;13247;47.504;7.382;2023-02-10T07:59:26;99398.53;;;-2.79;100.00
21817;BME280;13247;47.504;7.382;2023-02-10T08:02:11;99400.78;;;-2.69;100.00
21817;BME280;13247;47.504;7.382;2023-02-10T08:04:55;99405.84;;;-2.71;100.00
21817;BME280;13247;47.504;7.382;2023-02-10T08:07:42;99405.22;;;-2.67;100.00
21817;BME280;13247;47.504;7.382;2023-02-10T08:10:26;99405.28;;;-2.49;100.00
21817;BME280;13247;47.504;7.382;2023-02-10T08:13:11;99405.22;;;-2.34;100.00
21817;BME280;13247;47.504;7.382;2023-02-10T08:15:55;99408.84;;;-1.97;100.00
21817;BME280;13247;47.504;7.382;2023-02-10T08:18:41;99404.25;;;-1.87;100.00
21817;BME280;13247;47.504;7.382;2023-02-10T08:21:26;99410.78;;;-1.93;100.00
21817;BME280;13247;47.504;7.382;2023-02-10T08:24:11;99399.78;;;-1.91;100.00
21817;BME280;13247;47.504;7.382;2023-02-10T08:26:56;99399.16;;;-1.69;100.00
21817;BME280;13247;47.504;7.382;2023-02-10T08:29:40;99403.94;;;-0.50;100.00
21817;BME280;13247;47.504;7.382;2023-02-10T08:32:25;99405.25;;;-0.97;100.00
21817;BME280;13247;47.504;7.382;2023-02-10T08:35:10;99406.28;;;-1.28;100.00
21817;BME280;13247;47.504;7.382;2023-02-10T08:37:55;99415.28;;;-1.38;100.00
21817;BME280;13247;47.504;7.382;2023-02-10T08:40:40;99416.47;;;-1.31;100.00
21817;BME280;13247;47.504;7.382;2023-02-10T08:43:24;99415.41;;;-1.35;100.00
21817;BME280;13247;47.504;7.382;2023-02-10T08:46:09;99415.19;;;-1.22;100.00
21817;BME280;13247;47.504;7.382;2023-02-10T08:48:54;99403.56;;;-0.96;100.00
21817;BME280;13247;47.504;7.382;2023-02-10T08:51:38;99414.66;;;-0.97;100.00
21817;BME280;13247;47.504;7.382;2023-02-10T08:54:23;99418.03;;;-0.81;100.00
21817;BME280;13247;47.504;7.382;2023-02-10T08:57:08;99408.56;;;-0.62;100.00
21817;BME280;13247;47.504;7.382;2023-02-10T08:59:54;99415.03;;;-0.53;100.00
21817;BME280;13247;47.504;7.382;2023-02-10T09:02:39;99409.78;;;-0.35;100.00
21817;BME280;13247;47.504;7.382;2023-02-10T09:05:23;99408.44;;;-0.46;100.00
21817;BME280;13247;47.504;7.382;2023-02-10T09:08:09;99415.69;;;-0.19;100.00
21817;BME280;13247;47.504;7.382;2023-02-10T09:10:53;99412.72;;;-0.28;100.00
21817;BME280;13247;47.504;7.382;2023-02-10T09:13:38;99417.88;;;-0.28;100.00
21817;BME280;13247;47.504;7.382;2023-02-10T09:16:23;99416.78;;;-0.14;100.00
21817;BME280;13247;47.504;7.382;2023-02-10T09:19:08;99417.09;;;-0.06;100.00
21817;BME280;13247;47.504;7.382;2023-02-10T09:27:05;99424.63;;;0.48;100.00
21817;BME280;13247;47.504;7.382;2023-02-10T09:29:50;99421.59;;;0.58;100.00
21817;BME280;13247;47.504;7.382;2023-02-10T09:32:34;99426.72;;;0.57;100.00
21817;BME280;13247;47.504;7.382;2023-02-10T09:35:19;99423.72;;;0.68;100.00
21817;BME280;13247;47.504;7.382;2023-02-10T09:38:04;99412.59;;;0.69;100.00
21817;BME280;13247;47.504;7.382;2023-02-10T09:41:05;99414.59;;;0.76;100.00
21817;BME280;13247;47.504;7.382;2023-02-10T09:56:02;99406.53;;;1.56;100.00
21817;BME280;13247;47.504;7.382;2023-02-10T09:58:54;99397.06;;;1.80;100.00
21817;BME280;13247;47.504;7.382;2023-02-10T10:01:46;99397.50;;;1.92;100.00
21817;BME280;13247;47.504;7.382;2023-02-10T10:04:32;99397.50;;;1.92;100.00
21817;BME280;13247;47.504;7.382;2023-02-10T10:07:34;99396.25;;;2.05;100.00
21817;BME280;13247;47.504;7.382;2023-02-10T10:10:24;99392.25;;;2.14;100.00
21817;BME280;13247;47.504;7.382;2023-02-10T10:13:15;99399.28;;;2.18;100.00
21817;BME280;13247;47.504;7.382;2023-02-10T10:19:52;99398.56;;;2.48;100.00
21817;BME280;13247;47.504;7.382;2023-02-10T10:29:28;99399.81;;;2.85;100.00
21817;BME280;13247;47.504;7.382;2023-02-10T10:32:23;99389.75;;;2.94;100.00
21817;BME280;13247;47.504;7.382;2023-02-10T10:35:28;99390.50;;;2.90;100.00
21817;BME280;13247;47.504;7.382;2023-02-10T10:38:22;99390.53;;;2.92;100.00
21817;BME280;13247;47.504;7.382;2023-02-10T10:41:12;99383.41;;;3.13;100.00
21817;BME280;13247;47.504;7.382;2023-02-10T10:43:59;99392.13;;;3.15;100.00
21817;BME280;13247;47.504;7.382;2023-02-10T10:49:31;99379.78;;;3.35;100.00
21817;BME280;13247;47.504;7.382;2023-02-10T10:52:33;99380.72;;;3.38;100.00
21817;BME280;13247;47.504;7.382;2023-02-10T10:55:38;99372.75;;;3.60;100.00
21817;BME280;13247;47.504;7.382;2023-02-10T11:01:13;99372.44;;;3.79;100.00
21817;BME280;13247;47.504;7.382;2023-02-10T11:04:16;99357.16;;;4.23;100.00
21817;BME280;13247;47.504;7.382;2023-02-10T11:07:01;99358.84;;;4.21;100.00
21817;BME280;13247;47.504;7.382;2023-02-10T11:09:52;99357.16;;;3.90;100.00
21817;BME280;13247;47.504;7.382;2023-02-10T11:12:39;99351.41;;;4.02;100.00
21817;BME280;13247;47.504;7.382;2023-02-10T11:18:21;99337.78;;;4.10;100.00
21817;BME280;13247;47.504;7.382;2023-02-10T11:21:10;99335.59;;;4.25;100.00
21817;BME280;13247;47.504;7.382;2023-02-10T11:23:55;99339.09;;;4.60;100.00
21817;BME280;13247;47.504;7.382;2023-02-10T11:26:39;99334.72;;;4.59;100.00
21817;BME280;13247;47.504;7.382;2023-02-10T11:29:25;99334.31;;;4.78;100.00
21817;BME280;13247;47.504;7.382;2023-02-10T11:32:25;99344.13;;;4.54;100.00
21817;BME280;13247;47.504;7.382;2023-02-10T11:35:15;99340.31;;;4.40;100.00
21817;BME280;13247;47.504;7.382;2023-02-10T11:38:04;99337.16;;;4.53;100.00
21817;BME280;13247;47.504;7.382;2023-02-10T11:40:57;99326.22;;;4.64;100.00
21817;BME280;13247;47.504;7.382;2023-02-10T11:43:44;99333.94;;;4.63;100.00
21817;BME280;13247;47.504;7.382;2023-02-10T11:46:30;99334.50;;;4.86;100.00
21817;BME280;13247;47.504;7.382;2023-02-10T11:49:18;99326.09;;;4.97;100.00
21817;BME280;13247;47.504;7.382;2023-02-10T11:52:05;99324.97;;;4.86;100.00
21817;BME280;13247;47.504;7.382;2023-02-10T11:54:50;99328.47;;;4.88;100.00
21817;BME280;13247;47.504;7.382;2023-02-10T12:00:58;99320.84;;;4.94;100.00
21817;BME280;13247;47.504;7.382;2023-02-10T12:07:09;99317.50;;;5.00;100.00
21817;BME280;13247;47.504;7.382;2023-02-10T12:10:11;99314.03;;;5.39;100.00
21817;BME280;13247;47.504;7.382;2023-02-10T12:13:11;99310.25;;;5.67;100.00
21817;BME280;13247;47.504;7.382;2023-02-10T12:16:35;99309.38;;;5.68;100.00
21817;BME280;13247;47.504;7.382;2023-02-10T12:25:40;99297.00;;;6.00;100.00
21817;BME280;13247;47.504;7.382;2023-02-10T12:28:43;99304.47;;;6.26;100.00
21817;BME280;13247;47.504;7.382;2023-02-10T12:31:52;99307.03;;;6.25;100.00
21817;BME280;13247;47.504;7.382;2023-02-10T12:43:42;99294.28;;;5.92;92.75
21817;BME280;13247;47.504;7.382;2023-02-10T12:46:49;99303.69;;;5.86;97.91
21817;BME280;13247;47.504;7.382;2023-02-10T12:55:54;99296.66;;;6.29;91.50
21817;BME280;13247;47.504;7.382;2023-02-10T12:58:46;99306.25;;;6.30;90.87
21817;BME280;13247;47.504;7.382;2023-02-10T13:01:40;99311.16;;;6.12;89.60
21817;BME280;13247;47.504;7.382;2023-02-10T13:04:33;99293.16;;;6.26;86.93
21817;BME280;13247;47.504;7.382;2023-02-10T13:10:36;99299.22;;;5.80;94.50
21817;BME280;13247;47.504;7.382;2023-02-10T13:13:24;99297.59;;;5.84;94.58
21817;BME280;13247;47.504;7.382;2023-02-10T13:16:17;99290.88;;;5.95;91.83
21817;BME280;13247;47.504;7.382;2023-02-10T13:31:42;99269.72;;;6.83;77.69
21817;BME280;13247;47.504;7.382;2023-02-10T13:34:48;99281.53;;;6.58;79.43
21817;BME280;13247;47.504;7.382;2023-02-10T13:37:40;99278.59;;;6.94;75.92
21817;BME280;13247;47.504;7.382;2023-02-10T13:41:00;99273.03;;;6.71;74.97
21817;BME280;13247;47.504;7.382;2023-02-10T13:49:57;99265.47;;;6.89;78.31
21817;BME280;13247;47.504;7.382;2023-02-10T13:53:04;99261.50;;;7.17;71.60
21817;BME280;13247;47.504;7.382;2023-02-10T13:55:50;99257.09;;;7.11;72.11
21817;BME280;13247;47.504;7.382;2023-02-10T13:58:35;99262.28;;;7.08;73.50
21817;BME280;13247;47.504;7.382;2023-02-10T14:07:15;99263.09;;;7.07;74.88
21817;BME280;13247;47.504;7.382;2023-02-10T14:13:23;99278.03;;;6.58;78.50
21817;BME280;13247;47.504;7.382;2023-02-10T14:19:17;99278.28;;;6.73;72.07
21817;BME280;13247;47.504;7.382;2023-02-10T14:22:04;99271.44;;;6.82;73.77
21817;BME280;13247;47.504;7.382;2023-02-10T14:24:50;99274.94;;;6.84;70.81
21817;BME280;13247;47.504;7.382;2023-02-10T14:27:35;99275.84;;;6.86;69.24
21817;BME280;13247;47.504;7.382;2023-02-10T14:30:31;99279.22;;;7.42;65.73
21817;BME280;13247;47.504;7.382;2023-02-10T14:33:26;99274.00;;;7.41;63.48
21817;BME280;13247;47.504;7.382;2023-02-10T14:36:19;99285.22;;;7.35;62.72
21817;BME280;13247;47.504;7.382;2023-02-10T14:39:04;99276.97;;;7.03;64.45
21817;BME280;13247;47.504;7.382;2023-02-10T14:41:50;99281.63;;;7.24;64.64
21817;BME280;13247;47.504;7.382;2023-02-10T14:44:45;99278.94;;;7.20;64.21
21817;BME280;13247;47.504;7.382;2023-02-10T14:47:37;99284.84;;;7.06;65.89
21817;BME280;13247;47.504;7.382;2023-02-10T14:50:35;99283.81;;;6.97;67.29
21817;BME280;13247;47.504;7.382;2023-02-10T14:53:20;99284.41;;;6.76;72.23
21817;BME280;13247;47.504;7.382;2023-02-10T14:56:12;99290.19;;;6.57;75.06
21817;BME280;13247;47.504;7.382;2023-02-10T14:58:59;99290.59;;;6.29;79.91
21817;BME280;13247;47.504;7.382;2023-02-10T15:01:44;99285.75;;;6.01;78.91
21817;BME280;13247;47.504;7.382;2023-02-10T15:04:29;99296.78;;;5.88;82.42
21817;BME280;13247;47.504;7.382;2023-02-10T15:07:19;99292.66;;;5.97;83.58
21817;BME280;13247;47.504;7.382;2023-02-10T15:10:44;99289.72;;;5.81;90.20
21817;BME280;13247;47.504;7.382;2023-02-10T15:13:38;99292.41;;;5.85;90.35
21817;BME280;13247;47.504;7.382;2023-02-10T15:16:25;99310.47;;;5.79;94.24
21817;BME280;13247;47.504;7.382;2023-02-10T15:19:17;99303.34;;;5.68;91.29
21817;BME280;13247;47.504;7.382;2023-02-10T15:22:02;99306.03;;;5.72;91.42
21817;BME280;13247;47.504;7.382;2023-02-10T15:24:48;99304.34;;;5.74;91.18
21817;BME280;13247;47.504;7.382;2023-02-10T15:27:39;99304.81;;;5.55;94.45
21817;BME280;13247;47.504;7.382;2023-02-10T15:30:26;99314.53;;;5.64;95.27
21817;BME280;13247;47.504;7.382;2023-02-10T15:33:39;99322.84;;;5.46;94.36
21817;BME280;13247;47.504;7.382;2023-02-10T15:36:27;99322.84;;;5.46;96.65
21817;BME280;13247;47.504;7.382;2023-02-10T15:42:20;99319.06;;;5.32;96.79
21817;BME280;13247;47.504;7.382;2023-02-10T15:45:13;99325.41;;;5.44;94.04
21817;BME280;13247;47.504;7.382;2023-02-10T15:48:08;99325.72;;;5.60;94.00
21817;BME280;13247;47.504;7.382;2023-02-10T15:50:53;99322.75;;;5.43;93.92
21817;BME280;13247;47.504;7.382;2023-02-10T15:53:38;99334.72;;;5.33;96.42
21817;BME280;13247;47.504;7.382;2023-02-10T15:56:24;99326.19;;;5.40;94.14
21817;BME280;13247;47.504;7.382;2023-02-10T15:59:14;99337.63;;;5.48;95.79
21817;BME280;13247;47.504;7.382;2023-02-10T16:02:02;99328.38;;;5.63;92.13
21817;BME280;13247;47.504;7.382;2023-02-10T16:04:47;99326.59;;;5.60;91.48
21817;BME280;13247;47.504;7.382;2023-02-10T16:07:32;99328.59;;;5.75;91.20
21817;BME280;13247;47.504;7.382;2023-02-10T16:10:22;99332.31;;;5.42;97.77
21817;BME280;13247;47.504;7.382;2023-02-10T16:13:08;99326.91;;;5.33;100.00
21817;BME280;13247;47.504;7.382;2023-02-10T16:15:54;99335.81;;;5.06;100.00
21817;BME280;13247;47.504;7.382;2023-02-10T16:18:38;99327.69;;;4.91;100.00
21817;BME280;13247;47.504;7.382;2023-02-10T16:21:24;99330.91;;;4.81;100.00
21817;BME280;13247;47.504;7.382;2023-02-10T16:24:18;99318.50;;;4.69;100.00
21817;BME280;13247;47.504;7.382;2023-02-10T16:27:03;99327.81;;;4.59;100.00
21817;BME280;13247;47.504;7.382;2023-02-10T16:29:48;99330.88;;;4.43;100.00
21817;BME280;13247;47.504;7.382;2023-02-10T16:32:33;99329.03;;;4.39;100.00
21817;BME280;13247;47.504;7.382;2023-02-10T16:35:17;99332.31;;;4.31;100.00
21817;BME280;13247;47.504;7.382;2023-02-10T16:38:03;99333.88;;;4.26;100.00
21817;BME280;13247;47.504;7.382;2023-02-10T16:40:48;99329.72;;;4.31;100.00
21817;BME280;13247;47.504;7.382;2023-02-10T16:43:32;99328.31;;;4.11;100.00
21817;BME280;13247;47.504;7.382;2023-02-10T16:46:17;99336.66;;;3.99;100.00
21817;BME280;13247;47.504;7.382;2023-02-10T16:49:05;99339.91;;;3.92;100.00